Time;durP1;ratioP1;P1;durP2;ratioP2;P2;SDS_P1;SDS_P2;PMS_P1;PMS_P2;Temp;Humidity;BMP_temperature;BMP_pressure;BME280_temperature;BME280_humidity;BME280_pressure;Samples;Min_cycle;Max_cycle;Signal;HPM_P1;HPM_P2
2022/08/07 00:00:33;;;;;;;3.40;3.20;;;;;;;;;;5035659;28;20185;-60
2022/08/07 00:02:59;;;;;;;3.17;2.87;;;;;;;;;;5058490;28;20189;-60
2022/08/07 00:05:25;;;;;;;3.17;2.97;;;;;;;;;;5089258;28;20710;-60
2022/08/07 00:07:52;;;;;;;3.17;2.90;;;;;;;;;;5088052;28;20230;-60
2022/08/07 00:10:18;;;;;;;3.33;3.00;;;;;;;;;;5089294;28;20524;-60
2022/08/07 00:12:44;;;;;;;3.07;2.77;;;;;;;;;;5089730;28;20174;-61
2022/08/07 00:15:10;;;;;;;3.40;3.10;;;;;;;;;;5088708;28;20200;-61
2022/08/07 00:17:37;;;;;;;3.23;2.93;;;;;;;;;;5069441;28;20175;-61
2022/08/07 00:20:04;;;;;;;3.10;2.90;;;;;;;;;;5071632;28;20193;-60
2022/08/07 00:22:31;;;;;;;3.30;3.10;;;;;;;;;;5087903;28;20563;-60
2022/08/07 00:24:57;;;;;;;3.17;2.97;;;;;;;;;;5070887;28;20181;-61
2022/08/07 00:27:24;;;;;;;3.03;2.83;;;;;;;;;;5085737;28;20550;-60
2022/08/07 00:29:50;;;;;;;3.40;2.87;;;;;;;;;;5052769;28;20619;-59
2022/08/07 00:32:17;;;;;;;3.00;2.70;;;;;;;;;;5056601;28;20173;-60
2022/08/07 00:34:48;;;;;;;3.37;3.07;;;;;;;;;;5071290;28;20355;-60
2022/08/07 00:37:15;;;;;;;3.13;2.93;;;;;;;;;;5085102;28;20635;-59
2022/08/07 00:39:41;;;;;;;4.30;2.60;;;;;;;;;;5064701;27;20204;-60
2022/08/07 00:42:08;;;;;;;3.17;2.70;;;;;;;;;;5066321;28;20188;-59
2022/08/07 00:44:35;;;;;;;3.30;3.00;;;;;;;;;;5088232;28;20661;-60
2022/08/07 00:47:05;;;;;;;3.67;3.37;;;;;;;;;;5088319;28;20176;-60
2022/08/07 00:49:31;;;;;;;3.77;2.90;;;;;;;;;;5068643;28;20578;-60
2022/08/07 00:51:58;;;;;;;2.93;2.70;;;;;;;;;;5087807;28;20196;-60
2022/08/07 00:54:24;;;;;;;2.83;2.63;;;;;;;;;;5087423;28;20184;-59
2022/08/07 00:56:50;;;;;;;3.20;3.00;;;;;;;;;;5088636;28;20186;-59
2022/08/07 00:59:20;;;;;;;4.17;2.90;;;;;;;;;;5066619;28;20532;-60
2022/08/07 01:01:47;;;;;;;2.87;2.67;;;;;;;;;;5088715;28;20252;-60
2022/08/07 01:04:15;;;;;;;3.00;2.80;;;;;;;;;;5086550;28;20203;-60
2022/08/07 01:06:41;;;;;;;3.63;3.33;;;;;;;;;;5087196;28;20237;-59
2022/08/07 01:09:07;;;;;;;2.90;2.70;;;;;;;;;;5087075;28;20238;-60
2022/08/07 01:11:33;;;;;;;3.43;2.67;;;;;;;;;;5088394;28;20171;-60
2022/08/07 01:14:00;;;;;;;3.30;3.10;;;;;;;;;;5084966;28;20172;-59
2022/08/07 01:16:27;;;;;;;3.23;2.97;;;;;;;;;;5070022;28;20609;-59
2022/08/07 01:18:53;;;;;;;3.03;2.80;;;;;;;;;;5068569;28;20221;-58
2022/08/07 01:21:22;;;;;;;3.37;3.07;;;;;;;;;;5087387;28;20705;-58
2022/08/07 01:23:49;;;;;;;3.73;3.43;;;;;;;;;;5086959;28;20172;-59
2022/08/07 01:26:16;;;;;;;3.30;3.00;;;;;;;;;;5087975;28;20194;-59
2022/08/07 01:28:43;;;;;;;3.40;3.00;;;;;;;;;;5068758;28;20676;-58
2022/08/07 01:31:09;;;;;;;3.23;2.93;;;;;;;;;;5081329;28;20753;-59
2022/08/07 01:33:36;;;;;;;3.37;3.00;;;;;;;;;;5055603;28;20173;-59
2022/08/07 01:36:03;;;;;;;3.27;2.80;;;;;;;;;;5084478;28;20175;-59
2022/08/07 01:38:29;;;;;;;3.00;2.80;;;;;;;;;;5086645;28;20191;-59
2022/08/07 01:40:57;;;;;;;3.37;3.17;;;;;;;;;;5079943;27;20235;-58
2022/08/07 01:43:24;;;;;;;3.23;3.03;;;;;;;;;;5079239;28;20180;-59
2022/08/07 01:45:50;;;;;;;3.57;3.30;;;;;;;;;;5101203;28;20567;-59
2022/08/07 01:48:16;;;;;;;3.30;3.00;;;;;;;;;;5091308;28;20291;-59
2022/08/07 01:50:45;;;;;;;3.40;3.10;;;;;;;;;;5053124;28;20180;-59
2022/08/07 01:53:12;;;;;;;2.80;2.60;;;;;;;;;;5087490;28;20556;-58
2022/08/07 01:55:59;;;;;;;3.43;3.13;;;;;;;;;;5086983;28;20528;-59
2022/08/07 01:58:28;;;;;;;3.20;2.90;;;;;;;;;;5074953;28;20630;-58
2022/08/07 02:00:57;;;;;;;3.30;3.00;;;;;;;;;;5049801;28;20207;-59
2022/08/07 02:03:24;;;;;;;4.77;4.40;;;;;;;;;;5083872;28;20199;-58
2022/08/07 02:06:02;;;;;;;3.30;3.10;;;;;;;;;;5063066;28;20277;-59
2022/08/07 02:08:30;;;;;;;4.07;2.90;;;;;;;;;;5071183;28;20191;-58
2022/08/07 02:10:58;;;;;;;3.30;3.10;;;;;;;;;;5067365;28;20179;-58
2022/08/07 02:13:25;;;;;;;3.77;3.47;;;;;;;;;;5064315;28;20172;-58
2022/08/07 02:15:52;;;;;;;3.10;2.80;;;;;;;;;;5076032;28;20215;-58
2022/08/07 02:18:19;;;;;;;3.27;2.97;;;;;;;;;;5083175;28;20176;-59
2022/08/07 02:20:48;;;;;;;3.57;3.27;;;;;;;;;;5088042;28;20697;-59
2022/08/07 02:23:15;;;;;;;3.00;2.80;;;;;;;;;;5077444;28;20668;-58
2022/08/07 02:25:41;;;;;;;3.70;3.40;;;;;;;;;;5086686;28;20176;-58
2022/08/07 02:28:08;;;;;;;4.03;3.73;;;;;;;;;;5077672;28;20647;-59
2022/08/07 02:30:35;;;;;;;4.00;3.50;;;;;;;;;;5067807;28;20173;-59
2022/08/07 02:33:02;;;;;;;3.17;2.93;;;;;;;;;;5077427;28;20168;-59
2022/08/07 02:35:28;;;;;;;3.40;3.20;;;;;;;;;;5069362;28;20225;-59
2022/08/07 02:37:55;;;;;;;3.30;3.00;;;;;;;;;;5087519;28;20179;-60
2022/08/07 02:40:22;;;;;;;3.67;3.37;;;;;;;;;;5086702;28;20235;-59
2022/08/07 02:42:48;;;;;;;3.40;3.10;;;;;;;;;;5084806;28;20171;-59
2022/08/07 02:45:16;;;;;;;3.50;3.20;;;;;;;;;;5056889;28;20237;-59
2022/08/07 02:47:42;;;;;;;3.10;2.90;;;;;;;;;;5072447;28;20630;-59
2022/08/07 02:50:08;;;;;;;3.33;3.13;;;;;;;;;;5087470;28;20195;-59
2022/08/07 02:52:37;;;;;;;3.23;3.03;;;;;;;;;;5082891;28;20169;-60
2022/08/07 02:55:10;;;;;;;3.37;2.83;;;;;;;;;;5066551;28;20164;-59
2022/08/07 02:57:36;;;;;;;3.53;3.23;;;;;;;;;;5083290;28;20641;-59
2022/08/07 03:00:04;;;;;;;3.40;3.10;;;;;;;;;;5085682;28;20653;-59
2022/08/07 03:02:30;;;;;;;3.03;2.80;;;;;;;;;;5086641;28;20176;-59
2022/08/07 03:04:58;;;;;;;3.23;3.03;;;;;;;;;;5086845;28;20167;-59
2022/08/07 03:07:24;;;;;;;4.20;3.80;;;;;;;;;;5084781;28;20575;-59
2022/08/07 03:09:51;;;;;;;3.33;3.13;;;;;;;;;;5066727;28;20386;-59
2022/08/07 03:12:17;;;;;;;3.67;3.30;;;;;;;;;;5060386;28;20586;-60
2022/08/07 03:14:44;;;;;;;4.83;3.43;;;;;;;;;;5070456;28;20535;-59
2022/08/07 03:17:19;;;;;;;10.03;9.53;;;;;;;;;;5078669;28;20172;-59
2022/08/07 03:19:46;;;;;;;3.50;3.20;;;;;;;;;;5070825;28;20693;-60
2022/08/07 03:22:13;;;;;;;3.17;2.97;;;;;;;;;;5075914;28;20168;-59
2022/08/07 03:24:39;;;;;;;4.03;3.63;;;;;;;;;;5070554;28;20195;-60
2022/08/07 03:27:07;;;;;;;3.43;3.17;;;;;;;;;;5077220;28;20175;-60
2022/08/07 03:29:34;;;;;;;3.33;3.03;;;;;;;;;;5070230;28;20248;-60
2022/08/07 03:32:02;;;;;;;5.13;4.77;;;;;;;;;;5074867;28;20258;-60
2022/08/07 03:34:28;;;;;;;3.67;3.37;;;;;;;;;;5083087;28;20191;-60
2022/08/07 03:36:54;;;;;;;3.57;3.27;;;;;;;;;;5088850;28;20168;-60
2022/08/07 03:39:22;;;;;;;6.50;6.10;;;;;;;;;;5061504;28;20215;-60
2022/08/07 03:41:48;;;;;;;3.20;3.00;;;;;;;;;;5082964;27;20840;-60
2022/08/07 03:44:15;;;;;;;6.43;6.03;;;;;;;;;;5089896;28;20709;-60
2022/08/07 03:46:41;;;;;;;3.43;3.13;;;;;;;;;;5073827;28;20176;-60
2022/08/07 03:49:08;;;;;;;3.10;2.90;;;;;;;;;;5087823;28;20666;-60
2022/08/07 03:51:42;;;;;;;3.80;3.00;;;;;;;;;;5090949;28;20184;-60
2022/08/07 03:54:08;;;;;;;3.27;3.07;;;;;;;;;;5090314;28;20217;-61
2022/08/07 03:56:35;;;;;;;3.40;3.20;;;;;;;;;;5091047;28;20572;-60
2022/08/07 03:59:03;;;;;;;2.90;2.70;;;;;;;;;;5088145;28;20259;-60
2022/08/07 04:01:29;;;;;;;3.63;3.33;;;;;;;;;;5090026;28;20684;-60
2022/08/07 04:03:55;;;;;;;3.93;3.47;;;;;;;;;;5072540;28;20172;-60
2022/08/07 04:06:24;;;;;;;3.50;3.20;;;;;;;;;;5069836;28;20381;-60
2022/08/07 04:08:51;;;;;;;4.00;3.57;;;;;;;;;;5084475;28;20199;-60
2022/08/07 04:11:17;;;;;;;3.47;3.20;;;;;;;;;;5090288;28;20185;-60
2022/08/07 04:13:44;;;;;;;3.40;3.20;;;;;;;;;;5087436;28;20645;-60
2022/08/07 04:16:11;;;;;;;2.90;2.70;;;;;;;;;;5090150;28;20155;-60
2022/08/07 04:18:37;;;;;;;3.40;3.20;;;;;;;;;;5089400;28;20179;-60
2022/08/07 04:21:03;;;;;;;3.20;3.00;;;;;;;;;;5090213;28;20223;-59
2022/08/07 04:23:31;;;;;;;3.57;3.33;;;;;;;;;;5059514;28;20212;-60
2022/08/07 04:25:58;;;;;;;3.70;3.40;;;;;;;;;;5064109;28;20189;-59
2022/08/07 04:28:24;;;;;;;3.30;3.07;;;;;;;;;;5078731;28;20603;-60
2022/08/07 04:30:50;;;;;;;3.43;3.23;;;;;;;;;;5071331;28;20172;-60
2022/08/07 04:33:17;;;;;;;5.53;5.23;;;;;;;;;;5088498;28;20167;-60
2022/08/07 04:35:45;;;;;;;3.33;3.03;;;;;;;;;;5090254;28;20164;-60
2022/08/07 04:38:11;;;;;;;4.10;3.80;;;;;;;;;;5067893;28;20715;-60
2022/08/07 04:40:42;;;;;;;3.87;3.57;;;;;;;;;;5089451;28;20678;-60
2022/08/07 04:43:08;;;;;;;3.60;3.30;;;;;;;;;;5080207;28;20219;-60
2022/08/07 04:45:38;;;;;;;2.77;2.57;;;;;;;;;;5071835;28;20164;-60
2022/08/07 04:48:07;;;;;;;3.10;2.90;;;;;;;;;;5085842;28;20581;-59
2022/08/07 04:50:39;;;;;;;3.70;3.40;;;;;;;;;;5089668;28;20187;-60
2022/08/07 04:53:08;;;;;;;2.93;2.73;;;;;;;;;;5089398;28;20249;-60
2022/08/07 04:55:46;;;;;;;3.10;2.80;;;;;;;;;;5071360;28;20180;-60
2022/08/07 04:58:15;;;;;;;3.67;3.40;;;;;;;;;;5087451;28;20236;-60
2022/08/07 05:00:51;;;;;;;4.90;4.50;;;;;;;;;;5070348;28;20179;-60
2022/08/07 05:03:40;;;;;;;3.57;2.97;;;;;;;;;;5083640;28;20159;-60
2022/08/07 05:06:08;;;;;;;3.20;3.00;;;;;;;;;;5069741;28;20200;-60
2022/08/07 05:08:40;;;;;;;3.43;3.13;;;;;;;;;;5058749;28;20207;-60
2022/08/07 05:11:11;;;;;;;2.87;2.67;;;;;;;;;;5089209;28;20168;-60
2022/08/07 05:13:44;;;;;;;2.87;2.67;;;;;;;;;;5076456;28;20217;-60
2022/08/07 05:16:13;;;;;;;3.97;3.20;;;;;;;;;;5089328;28;20175;-59
2022/08/07 05:18:50;;;;;;;4.00;2.90;;;;;;;;;;5087398;28;20164;-59
2022/08/07 05:21:17;;;;;;;3.30;3.10;;;;;;;;;;5085132;28;20227;-59
2022/08/07 05:23:47;;;;;;;3.23;2.90;;;;;;;;;;5088754;28;20519;-58
2022/08/07 05:26:16;;;;;;;2.90;2.70;;;;;;;;;;5085456;28;20176;-60
2022/08/07 05:28:52;;;;;;;3.10;2.80;;;;;;;;;;5071791;28;20208;-60
2022/08/07 05:31:19;;;;;;;2.97;2.77;;;;;;;;;;5067131;28;20679;-60
2022/08/07 05:33:48;;;;;;;2.93;2.73;;;;;;;;;;5079499;28;20183;-59
2022/08/07 05:36:15;;;;;;;3.97;2.80;;;;;;;;;;5088959;28;20164;-60
2022/08/07 05:38:42;;;;;;;3.53;3.23;;;;;;;;;;5084283;28;20183;-59
2022/08/07 05:41:15;;;;;;;3.07;2.80;;;;;;;;;;5088850;27;20253;-59
2022/08/07 05:43:42;;;;;;;3.20;3.00;;;;;;;;;;5088066;28;20294;-59
2022/08/07 05:46:09;;;;;;;2.97;2.77;;;;;;;;;;5071951;28;20634;-61
2022/08/07 05:48:36;;;;;;;2.90;2.70;;;;;;;;;;5070531;28;20234;-60
2022/08/07 05:51:03;;;;;;;3.00;2.80;;;;;;;;;;5085006;28;20217;-60
2022/08/07 05:53:29;;;;;;;2.70;2.50;;;;;;;;;;5088198;28;20182;-61
2022/08/07 05:55:56;;;;;;;2.90;2.70;;;;;;;;;;5088229;28;20210;-59
2022/08/07 05:58:24;;;;;;;3.10;2.90;;;;;;;;;;5075912;28;20262;-59
2022/08/07 06:00:50;;;;;;;2.93;2.70;;;;;;;;;;5080391;28;20639;-59
2022/08/07 06:03:18;;;;;;;3.20;3.00;;;;;;;;;;5081482;28;20655;-59
2022/08/07 06:05:47;;;;;;;3.00;2.80;;;;;;;;;;5068598;28;20205;-59
2022/08/07 06:08:13;;;;;;;3.10;2.80;;;;;;;;;;5086919;28;20206;-59
2022/08/07 06:10:40;;;;;;;2.77;2.57;;;;;;;;;;5107302;28;20236;-60
2022/08/07 06:13:07;;;;;;;2.80;2.60;;;;;;;;;;5079691;28;20172;-59
2022/08/07 06:15:35;;;;;;;2.93;2.50;;;;;;;;;;5087261;28;20174;-60
2022/08/07 06:18:02;;;;;;;2.70;2.50;;;;;;;;;;5086854;28;20656;-60
2022/08/07 06:20:29;;;;;;;3.43;3.20;;;;;;;;;;5088556;28;20600;-60
2022/08/07 06:22:56;;;;;;;2.50;2.30;;;;;;;;;;5084818;28;20539;-60
2022/08/07 06:25:22;;;;;;;2.37;2.20;;;;;;;;;;5087916;28;20660;-60
2022/08/07 06:27:48;;;;;;;2.83;2.63;;;;;;;;;;5063762;28;20183;-59
2022/08/07 06:30:15;;;;;;;2.90;2.70;;;;;;;;;;5077654;28;20207;-59
2022/08/07 06:32:41;;;;;;;3.33;2.60;;;;;;;;;;5093457;28;20182;-59
2022/08/07 06:35:07;;;;;;;2.60;2.40;;;;;;;;;;5098999;28;20184;-59
2022/08/07 06:37:33;;;;;;;2.67;2.47;;;;;;;;;;5083268;28;20567;-60
2022/08/07 06:40:06;;;;;;;2.97;2.77;;;;;;;;;;5086653;28;20175;-59
2022/08/07 06:42:38;;;;;;;2.60;2.40;;;;;;;;;;5072706;28;20195;-59
2022/08/07 06:45:08;;;;;;;2.40;2.30;;;;;;;;;;5044469;28;20177;-59
2022/08/07 06:47:34;;;;;;;2.37;2.27;;;;;;;;;;5081705;28;20702;-59
2022/08/07 06:50:00;;;;;;;2.67;2.47;;;;;;;;;;5080134;28;20254;-59
2022/08/07 06:52:32;;;;;;;2.50;2.40;;;;;;;;;;5053964;28;20389;-59
2022/08/07 06:54:59;;;;;;;2.50;2.30;;;;;;;;;;5067975;28;20710;-59
2022/08/07 06:57:26;;;;;;;2.20;2.10;;;;;;;;;;5055952;28;20179;-59
2022/08/07 06:59:52;;;;;;;2.20;2.10;;;;;;;;;;5054551;28;20185;-59
2022/08/07 07:02:20;;;;;;;1.90;1.80;;;;;;;;;;5034423;28;20686;-59
2022/08/07 07:04:46;;;;;;;2.13;1.93;;;;;;;;;;5069613;28;20168;-59
2022/08/07 07:07:13;;;;;;;2.67;2.47;;;;;;;;;;5059090;28;20221;-59
2022/08/07 07:09:46;;;;;;;2.20;2.10;;;;;;;;;;5062866;28;20208;-59
2022/08/07 07:12:12;;;;;;;2.40;2.20;;;;;;;;;;5062550;28;20176;-59
2022/08/07 07:14:45;;;;;;;2.30;2.20;;;;;;;;;;5053274;28;20183;-59
2022/08/07 07:17:15;;;;;;;2.33;2.23;;;;;;;;;;5065865;28;20177;-58
2022/08/07 07:19:45;;;;;;;2.10;2.00;;;;;;;;;;5068346;28;20204;-59
2022/08/07 07:22:12;;;;;;;2.17;2.03;;;;;;;;;;5064521;28;20211;-59
2022/08/07 07:24:38;;;;;;;2.10;2.00;;;;;;;;;;5067551;28;20191;-59
2022/08/07 07:40:41;;;;;;;3.00;2.37;;;;;;;;;;5000054;23;20248;-90
2022/08/07 07:43:09;;;;;;;2.47;2.33;;;;;;;;;;4986700;28;20687;-89
2022/08/07 07:45:36;;;;;;;2.20;2.00;;;;;;;;;;4995503;28;20163;-88
2022/08/07 07:48:03;;;;;;;3.03;2.20;;;;;;;;;;4993445;28;20178;-89
2022/08/07 07:50:29;;;;;;;1.93;1.83;;;;;;;;;;4990730;28;20174;-89
2022/08/07 07:52:56;;;;;;;2.10;1.80;;;;;;;;;;5015672;28;20205;-90
2022/08/07 07:55:26;;;;;;;2.30;2.20;;;;;;;;;;4998954;28;20206;-91
2022/08/07 07:57:53;;;;;;;2.03;1.93;;;;;;;;;;4993660;28;20184;-91
2022/08/07 08:00:19;;;;;;;3.43;1.87;;;;;;;;;;5009878;28;20270;-91
2022/08/07 08:02:50;;;;;;;2.00;1.90;;;;;;;;;;4998542;28;20183;-91
2022/08/07 08:05:17;;;;;;;2.10;1.90;;;;;;;;;;5010136;28;20180;-90
2022/08/07 08:07:43;;;;;;;2.57;2.00;;;;;;;;;;4992328;28;20998;-90
2022/08/07 08:10:10;;;;;;;3.60;2.10;;;;;;;;;;4990394;28;20616;-91
2022/08/07 08:12:37;;;;;;;1.80;1.70;;;;;;;;;;4996259;28;20189;-91
2022/08/07 08:15:03;;;;;;;2.63;2.00;;;;;;;;;;4996622;28;20175;-91
2022/08/07 08:17:30;;;;;;;1.87;1.70;;;;;;;;;;4998591;28;20199;-92
2022/08/07 08:20:00;;;;;;;1.73;1.63;;;;;;;;;;5004681;28;20180;-91
2022/08/07 08:27:57;;;;;;;2.07;1.80;;;;;;;;;;5008797;28;20415;-90
2022/08/07 08:30:25;;;;;;;1.53;1.50;;;;;;;;;;4988992;28;20192;-89
2022/08/07 08:32:52;;;;;;;1.97;1.73;;;;;;;;;;4986376;28;20611;-91
2022/08/07 08:35:21;;;;;;;1.90;1.80;;;;;;;;;;5001049;28;20625;-89
2022/08/07 08:37:47;;;;;;;1.90;1.80;;;;;;;;;;4998521;28;20163;-90
2022/08/07 08:40:18;;;;;;;1.83;1.73;;;;;;;;;;5011544;28;20221;-89
2022/08/07 08:43:03;;;;;;;2.23;2.03;;;;;;;;;;5012669;28;20178;-90
2022/08/07 08:45:42;;;;;;;2.00;1.90;;;;;;;;;;5037725;28;20181;-88
2022/08/07 08:48:08;;;;;;;1.80;1.70;;;;;;;;;;5017400;28;20653;-89
2022/08/07 08:50:38;;;;;;;1.97;1.87;;;;;;;;;;5023008;28;20185;-91
2022/08/07 08:53:09;;;;;;;1.90;1.80;;;;;;;;;;5013552;28;20180;-90
2022/08/07 08:55:37;;;;;;;2.80;2.10;;;;;;;;;;5009859;28;20180;-90
2022/08/07 08:58:03;;;;;;;2.33;2.23;;;;;;;;;;5015334;28;20183;-90
2022/08/07 09:00:32;;;;;;;2.03;1.70;;;;;;;;;;5011812;28;20272;-90
2022/08/07 09:03:00;;;;;;;4.30;1.60;;;;;;;;;;5031983;28;20210;-90
2022/08/07 09:05:45;;;;;;;2.60;1.70;;;;;;;;;;5030828;28;20645;-89
2022/08/07 09:08:19;;;;;;;1.90;1.80;;;;;;;;;;5013624;28;20232;-89
2022/08/07 09:10:54;;;;;;;2.07;1.90;;;;;;;;;;5036456;28;20184;-91
2022/08/07 09:13:31;;;;;;;1.97;1.80;;;;;;;;;;5028204;28;20247;-92
2022/08/07 09:16:08;;;;;;;2.57;1.70;;;;;;;;;;5033335;28;20181;-91
2022/08/07 09:18:40;;;;;;;1.77;1.67;;;;;;;;;;5039775;28;20186;-91
2022/08/07 09:21:15;;;;;;;1.90;1.77;;;;;;;;;;5012628;28;20185;-91
2022/08/07 09:23:50;;;;;;;2.00;1.90;;;;;;;;;;5013509;28;20181;-90
2022/08/07 09:26:35;;;;;;;3.33;1.90;;;;;;;;;;5028059;28;20180;-91
2022/08/07 09:29:30;;;;;;;1.97;1.80;;;;;;;;;;5029178;28;20204;-89
2022/08/07 09:32:12;;;;;;;1.70;1.60;;;;;;;;;;4943501;28;20220;-91
2022/08/07 09:34:38;;;;;;;2.33;1.80;;;;;;;;;;5004641;28;20947;-92
2022/08/07 09:37:06;;;;;;;2.00;1.90;;;;;;;;;;5014265;28;20212;-91
2022/08/07 09:39:39;;;;;;;2.47;2.00;;;;;;;;;;5006903;28;20657;-90
2022/08/07 09:42:25;;;;;;;2.10;2.00;;;;;;;;;;4990707;28;20306;-91
2022/08/07 09:45:03;;;;;;;2.03;1.93;;;;;;;;;;4976554;28;20174;-90
2022/08/07 09:47:37;;;;;;;2.83;2.17;;;;;;;;;;4985508;28;20221;-89
2022/08/07 09:50:22;;;;;;;2.13;1.90;;;;;;;;;;4988386;28;20265;-88
2022/08/07 09:52:52;;;;;;;2.20;2.10;;;;;;;;;;4987591;28;20681;-90
2022/08/07 09:55:26;;;;;;;1.87;1.73;;;;;;;;;;4979863;28;20198;-89
2022/08/07 09:58:21;;;;;;;2.70;1.73;;;;;;;;;;4992671;28;20217;-90
2022/08/07 10:00:57;;;;;;;1.87;1.70;;;;;;;;;;4988140;28;20187;-89
2022/08/07 10:03:49;;;;;;;3.40;2.20;;;;;;;;;;4992750;28;20178;-90
2022/08/07 10:06:21;;;;;;;2.40;2.20;;;;;;;;;;4978988;28;20198;-89
2022/08/07 10:08:57;;;;;;;2.53;2.30;;;;;;;;;;4978587;28;20665;-91
2022/08/07 10:11:42;;;;;;;2.37;2.17;;;;;;;;;;4976478;28;20182;-89
2022/08/07 10:14:12;;;;;;;2.00;1.90;;;;;;;;;;4983104;28;20543;-92
2022/08/07 10:16:53;;;;;;;1.93;1.73;;;;;;;;;;4988213;28;20178;-92
2022/08/07 10:19:34;;;;;;;1.83;1.73;;;;;;;;;;4985550;28;20637;-91
2022/08/07 10:22:15;;;;;;;2.17;1.93;;;;;;;;;;4987915;28;20219;-91
2022/08/07 10:24:54;;;;;;;2.53;2.33;;;;;;;;;;4996978;28;20192;-92
2022/08/07 10:27:41;;;;;;;1.90;1.80;;;;;;;;;;4994420;28;20188;-90
2022/08/07 10:30:08;;;;;;;1.90;1.80;;;;;;;;;;5002774;28;20210;-90
2022/08/07 10:32:51;;;;;;;2.20;1.87;;;;;;;;;;4981520;28;20282;-91
2022/08/07 10:38:57;;;;;;;1.93;1.80;;;;;;;;;;4964325;28;20211;-88
2022/08/07 10:41:39;;;;;;;2.10;2.00;;;;;;;;;;4992147;28;20218;-89
2022/08/07 10:44:24;;;;;;;2.13;1.90;;;;;;;;;;4987077;28;20743;-90
2022/08/07 10:47:09;;;;;;;1.93;1.83;;;;;;;;;;4989449;28;20210;-88
2022/08/07 10:49:39;;;;;;;2.17;1.80;;;;;;;;;;4982817;28;20262;-89
2022/08/07 10:52:08;;;;;;;5.60;2.00;;;;;;;;;;4995049;28;20660;-89
2022/08/07 10:54:34;;;;;;;2.03;1.80;;;;;;;;;;4985443;28;20250;-92
2022/08/07 10:57:03;;;;;;;1.90;1.80;;;;;;;;;;4985909;28;20175;-91
2022/08/07 10:59:48;;;;;;;2.07;1.87;;;;;;;;;;4993336;28;20183;-92
2022/08/07 11:02:33;;;;;;;1.90;1.80;;;;;;;;;;4993816;28;20246;-93
2022/08/07 11:05:20;;;;;;;2.00;1.90;;;;;;;;;;4990517;28;20203;-93
2022/08/07 11:08:32;;;;;;;;;;;;;;;;;;;;;
2022/08/07 11:11:40;;;;;;;1.80;1.70;;;;;;;;;;4930226;29;20193;-92
2022/08/07 11:14:15;;;;;;;2.07;1.87;;;;;;;;;;4986300;28;20269;-95
2022/08/07 11:16:55;;;;;;;1.90;1.80;;;;;;;;;;4998777;28;20174;-92
2022/08/07 11:19:31;;;;;;;3.47;2.13;;;;;;;;;;4999273;28;20634;-93
2022/08/07 11:22:06;;;;;;;1.80;1.70;;;;;;;;;;4994432;28;20250;-95
2022/08/07 11:24:52;;;;;;;1.90;1.80;;;;;;;;;;4989864;28;20683;-92
2022/08/07 11:27:22;;;;;;;1.80;1.70;;;;;;;;;;4994684;28;20282;-91
2022/08/07 11:30:00;;;;;;;2.20;2.00;;;;;;;;;;4991294;28;20206;-92
2022/08/07 11:32:40;;;;;;;2.10;2.00;;;;;;;;;;4991977;28;20195;-92
2022/08/07 11:35:11;;;;;;;4.03;2.10;;;;;;;;;;5021210;28;20180;-92
2022/08/07 11:37:37;;;;;;;2.07;1.97;;;;;;;;;;5000569;28;20236;-92
2022/08/07 11:40:22;;;;;;;2.20;2.00;;;;;;;;;;4999871;28;20259;-92
2022/08/07 11:43:08;;;;;;;2.40;2.20;;;;;;;;;;5006119;28;20181;-92
2022/08/07 11:45:53;;;;;;;2.03;1.93;;;;;;;;;;5002887;28;20170;-91
2022/08/07 11:48:39;;;;;;;2.30;2.20;;;;;;;;;;5014105;28;20177;-89
2022/08/07 11:51:16;;;;;;;1.90;1.80;;;;;;;;;;5011980;28;20220;-91
2022/08/07 11:54:00;;;;;;;2.27;2.17;;;;;;;;;;5018725;28;20394;-91
2022/08/07 11:56:36;;;;;;;2.20;2.00;;;;;;;;;;5019097;28;20200;-92
2022/08/07 11:59:15;;;;;;;2.00;1.90;;;;;;;;;;5016411;28;20183;-91
2022/08/07 12:02:04;;;;;;;2.00;1.90;;;;;;;;;;5019854;28;20185;-92
2022/08/07 12:05:04;;;;;;;2.40;2.20;;;;;;;;;;5044615;28;20182;-91
2022/08/07 12:07:55;;;;;;;4.73;2.20;;;;;;;;;;4973107;28;20195;-91
2022/08/07 12:10:37;;;;;;;2.00;1.90;;;;;;;;;;5017507;28;20268;-91
2022/08/07 12:13:10;;;;;;;2.17;2.07;;;;;;;;;;5019009;28;20182;-90
2022/08/07 12:15:49;;;;;;;2.17;2.07;;;;;;;;;;5019518;28;20567;-90
2022/08/07 12:18:21;;;;;;;2.83;2.37;;;;;;;;;;5010692;28;20183;-90
2022/08/07 12:20:50;;;;;;;3.00;2.73;;;;;;;;;;5012637;28;20532;-91
2022/08/07 12:23:32;;;;;;;4.33;4.07;;;;;;;;;;5009759;28;20663;-92
2022/08/07 12:26:01;;;;;;;2.00;1.90;;;;;;;;;;5014694;28;20181;-92
2022/08/07 12:28:48;;;;;;;2.47;2.33;;;;;;;;;;5019242;28;20184;-93
2022/08/07 12:31:18;;;;;;;2.30;2.13;;;;;;;;;;5021809;28;20172;-91
2022/08/07 12:33:46;;;;;;;2.20;2.10;;;;;;;;;;5019900;28;20786;-90
2022/08/07 12:36:15;;;;;;;2.40;2.17;;;;;;;;;;5018899;28;20630;-91
2022/08/07 12:38:44;;;;;;;3.10;2.27;;;;;;;;;;5014652;28;20715;-91
2022/08/07 12:41:17;;;;;;;2.33;2.13;;;;;;;;;;5014385;28;20279;-91
2022/08/07 12:43:44;;;;;;;3.10;1.93;;;;;;;;;;4998836;28;20206;-93
2022/08/07 12:46:30;;;;;;;2.10;2.00;;;;;;;;;;4990399;28;20548;-94
2022/08/07 12:48:56;;;;;;;4.07;2.13;;;;;;;;;;4994651;28;20216;-91
2022/08/07 12:51:26;;;;;;;2.10;2.00;;;;;;;;;;5014173;28;20217;-89
2022/08/07 12:54:09;;;;;;;2.17;2.03;;;;;;;;;;5005169;28;20244;-90
2022/08/07 12:56:41;;;;;;;4.60;2.37;;;;;;;;;;5014786;28;20180;-90
2022/08/07 12:59:08;;;;;;;3.67;2.20;;;;;;;;;;4996516;28;20249;-91
2022/08/07 13:01:56;;;;;;;2.03;1.93;;;;;;;;;;4994716;28;20227;-91
2022/08/07 13:04:48;;;;;;;4.80;2.10;;;;;;;;;;4984431;28;20215;-90
2022/08/07 13:07:21;;;;;;;4.03;2.27;;;;;;;;;;4991016;28;20738;-89
2022/08/07 13:10:06;;;;;;;2.63;2.20;;;;;;;;;;4989778;28;20848;-89
2022/08/07 13:12:39;;;;;;;2.17;2.00;;;;;;;;;;4990641;28;20182;-89
2022/08/07 13:15:11;;;;;;;3.20;2.23;;;;;;;;;;4983021;28;20174;-89
2022/08/07 13:17:56;;;;;;;2.87;2.30;;;;;;;;;;5001008;28;20173;-89
2022/08/07 13:20:28;;;;;;;5.07;2.57;;;;;;;;;;4990365;28;20673;-88
2022/08/07 13:22:58;;;;;;;3.70;3.07;;;;;;;;;;4993974;28;20176;-89
2022/08/07 13:25:27;;;;;;;2.37;2.20;;;;;;;;;;4990169;28;20238;-90
2022/08/07 13:27:56;;;;;;;2.10;2.00;;;;;;;;;;4995188;28;20234;-89
2022/08/07 13:30:29;;;;;;;2.30;2.10;;;;;;;;;;4997613;28;20611;-89
2022/08/07 13:33:08;;;;;;;2.70;2.23;;;;;;;;;;4996716;28;20182;-88
2022/08/07 13:35:49;;;;;;;2.47;2.30;;;;;;;;;;4995784;28;20169;-91
2022/08/07 13:38:29;;;;;;;2.17;2.03;;;;;;;;;;5008679;28;20189;-90
2022/08/07 13:41:21;;;;;;;2.40;2.30;;;;;;;;;;4999440;28;20819;-89
2022/08/07 13:43:49;;;;;;;1.90;1.80;;;;;;;;;;5014015;28;20262;-90
2022/08/07 13:46:16;;;;;;;2.10;2.00;;;;;;;;;;5006830;28;20937;-89
2022/08/07 13:48:46;;;;;;;2.00;1.90;;;;;;;;;;5006610;28;20213;-89
2022/08/07 13:51:13;;;;;;;2.50;2.40;;;;;;;;;;5039006;28;20593;-89
2022/08/07 13:53:43;;;;;;;2.80;2.70;;;;;;;;;;5012622;28;20182;-88
2022/08/07 13:56:09;;;;;;;2.53;2.33;;;;;;;;;;5015752;28;20188;-87
2022/08/07 14:06:42;;;;;;;2.83;2.60;;;;;;;;;;5000449;28;20231;-63
2022/08/07 14:09:10;;;;;;;2.30;2.20;;;;;;;;;;5022594;28;20218;-64
2022/08/07 14:11:42;;;;;;;2.47;2.37;;;;;;;;;;5011746;28;20699;-64
2022/08/07 14:14:10;;;;;;;3.57;2.23;;;;;;;;;;5030374;28;20192;-63
2022/08/07 14:16:40;;;;;;;2.73;2.10;;;;;;;;;;5028210;28;20657;-62
2022/08/07 14:19:11;;;;;;;3.03;1.93;;;;;;;;;;5024208;28;20192;-64
2022/08/07 14:21:42;;;;;;;2.17;1.97;;;;;;;;;;5024980;28;20239;-64
2022/08/07 14:24:12;;;;;;;2.30;2.10;;;;;;;;;;5010643;28;20278;-63
2022/08/07 14:26:49;;;;;;;3.67;2.20;;;;;;;;;;5022599;28;20188;-62
2022/08/07 14:29:17;;;;;;;3.40;2.63;;;;;;;;;;5022008;28;20200;-60
2022/08/07 14:31:45;;;;;;;2.30;2.13;;;;;;;;;;5026957;28;20178;-63
2022/08/07 14:34:11;;;;;;;2.23;2.13;;;;;;;;;;5028751;28;20624;-61
2022/08/07 14:36:38;;;;;;;2.27;2.10;;;;;;;;;;5029064;28;20187;-63
2022/08/07 14:39:05;;;;;;;2.67;2.23;;;;;;;;;;5030525;28;20188;-58
2022/08/07 14:41:32;;;;;;;2.50;2.30;;;;;;;;;;5028569;28;20175;-58
2022/08/07 14:43:59;;;;;;;5.40;1.90;;;;;;;;;;5038447;28;20197;-57
2022/08/07 14:46:26;;;;;;;3.53;2.00;;;;;;;;;;5028566;28;20187;-61
2022/08/07 14:48:53;;;;;;;2.17;2.07;;;;;;;;;;5029389;28;20749;-59
2022/08/07 14:51:21;;;;;;;2.33;2.13;;;;;;;;;;5023981;28;20514;-60
2022/08/07 14:53:50;;;;;;;2.57;2.00;;;;;;;;;;5017577;28;20185;-60
2022/08/07 14:56:18;;;;;;;2.00;1.90;;;;;;;;;;5009545;28;20277;-59
2022/08/07 14:58:47;;;;;;;2.33;2.20;;;;;;;;;;5021152;28;20551;-60
2022/08/07 15:01:16;;;;;;;10.68;3.05;;;;;;;;;;5010350;28;20686;-57
2022/08/07 15:03:43;;;;;;;4.43;2.90;;;;;;;;;;5013142;28;20233;-58
2022/08/07 15:06:09;;;;;;;2.53;2.30;;;;;;;;;;5049003;28;20779;-59
2022/08/07 15:08:37;;;;;;;2.67;2.30;;;;;;;;;;5062301;28;20183;-62
2022/08/07 15:11:09;;;;;;;4.33;2.50;;;;;;;;;;5063657;28;20268;-57
2022/08/07 15:13:41;;;;;;;2.57;2.20;;;;;;;;;;5039764;28;20639;-58
2022/08/07 15:16:10;;;;;;;3.43;2.20;;;;;;;;;;5052010;28;20624;-58
2022/08/07 15:18:37;;;;;;;2.13;1.92;;;;;;;;;;5052796;28;20211;-58
2022/08/07 15:21:05;;;;;;;2.77;1.90;;;;;;;;;;5029434;28;20177;-58
2022/08/07 15:23:33;;;;;;;1.80;1.70;;;;;;;;;;5042235;28;20699;-58
2022/08/07 15:26:01;;;;;;;2.93;2.50;;;;;;;;;;5020485;28;20188;-58
2022/08/07 15:28:28;;;;;;;3.73;2.73;;;;;;;;;;5047779;28;20189;-56
2022/08/07 15:30:56;;;;;;;2.40;2.20;;;;;;;;;;5035161;28;20291;-57
2022/08/07 15:33:23;;;;;;;2.30;2.10;;;;;;;;;;5046912;28;20203;-58
2022/08/07 15:35:54;;;;;;;2.30;2.10;;;;;;;;;;5041786;28;20257;-57